sensor_id;sensor_type;location;lat;lon;timestamp;pressure;altitude;pressure_sealevel;temperature;humidity
9695;BME280;4690;52.422;13.486;2023-12-20T00:09:31;100685.84;;;7.45;100.00
9695;BME280;4690;52.422;13.486;2023-12-20T00:11:57;100678.31;;;7.40;100.00
9695;BME280;4690;52.422;13.486;2023-12-20T00:14:22;100677.25;;;7.28;100.00
9695;BME280;4690;52.422;13.486;2023-12-20T00:16:48;100680.00;;;7.41;100.00
9695;BME280;4690;52.422;13.486;2023-12-20T00:19:14;100684.56;;;7.34;100.00
9695;BME280;4690;52.422;13.486;2023-12-20T00:21:40;100669.28;;;7.33;100.00
9695;BME280;4690;52.422;13.486;2023-12-20T00:24:05;100670.94;;;7.21;100.00
9695;BME280;4690;52.422;13.486;2023-12-20T00:26:31;100668.03;;;7.29;100.00
9695;BME280;4690;52.422;13.486;2023-12-20T00:28:57;100668.03;;;7.29;100.00
9695;BME280;4690;52.422;13.486;2023-12-20T00:31:22;100664.88;;;7.32;100.00
9695;BME280;4690;52.422;13.486;2023-12-20T00:33:48;100658.38;;;7.27;100.00
9695;BME280;4690;52.422;13.486;2023-12-20T00:36:14;100668.66;;;7.38;100.00
9695;BME280;4690;52.422;13.486;2023-12-20T00:38:40;100659.84;;;7.29;100.00
9695;BME280;4690;52.422;13.486;2023-12-20T00:41:05;100660.47;;;7.25;100.00
9695;BME280;4690;52.422;13.486;2023-12-20T00:43:31;100659.00;;;7.42;100.00
9695;BME280;4690;52.422;13.486;2023-12-20T00:45:57;100658.38;;;7.33;100.00
9695;BME280;4690;52.422;13.486;2023-12-20T00:48:25;100658.56;;;7.32;100.00
9695;BME280;4690;52.422;13.486;2023-12-20T00:50:52;100656.91;;;7.31;100.00
9695;BME280;4690;52.422;13.486;2023-12-20T00:53:18;100650.00;;;7.41;100.00
9695;BME280;4690;52.422;13.486;2023-12-20T00:55:45;100653.75;;;7.27;100.00
9695;BME280;4690;52.422;13.486;2023-12-20T00:58:11;100655.47;;;7.41;100.00
9695;BME280;4690;52.422;13.486;2023-12-20T01:00:36;100652.94;;;7.33;100.00
9695;BME280;4690;52.422;13.486;2023-12-20T01:03:02;100649.75;;;7.23;100.00
9695;BME280;4690;52.422;13.486;2023-12-20T01:05:28;100649.97;;;7.28;100.00
9695;BME280;4690;52.422;13.486;2023-12-20T01:07:54;100652.31;;;7.38;100.00
9695;BME280;4690;52.422;13.486;2023-12-20T01:10:20;100659.44;;;7.32;100.00
9695;BME280;4690;52.422;13.486;2023-12-20T01:12:45;100673.69;;;7.21;100.00
9695;BME280;4690;52.422;13.486;2023-12-20T01:15:11;100660.66;;;7.23;100.00
9695;BME280;4690;52.422;13.486;2023-12-20T01:17:37;100652.28;;;7.25;100.00
9695;BME280;4690;52.422;13.486;2023-12-20T01:20:03;100657.97;;;7.30;100.00
9695;BME280;4690;52.422;13.486;2023-12-20T01:22:29;100658.56;;;7.25;100.00
9695;BME280;4690;52.422;13.486;2023-12-20T01:24:55;100650.81;;;7.22;100.00
9695;BME280;4690;52.422;13.486;2023-12-20T01:27:21;100657.31;;;7.28;100.00
9695;BME280;4690;52.422;13.486;2023-12-20T01:29:46;100653.34;;;7.30;100.00
9695;BME280;4690;52.422;13.486;2023-12-20T01:32:12;100657.75;;;7.18;100.00
9695;BME280;4690;52.422;13.486;2023-12-20T01:34:38;100649.13;;;7.34;100.00
9695;BME280;4690;52.422;13.486;2023-12-20T01:37:04;100655.22;;;7.43;100.00
9695;BME280;4690;52.422;13.486;2023-12-20T01:39:29;100660.69;;;7.56;100.00
9695;BME280;4690;52.422;13.486;2023-12-20T01:41:55;100655.25;;;7.50;100.00
9695;BME280;4690;52.422;13.486;2023-12-20T01:44:21;100647.91;;;7.44;100.00
9695;BME280;4690;52.422;13.486;2023-12-20T01:46:48;100652.94;;;7.47;100.00
9695;BME280;4690;52.422;13.486;2023-12-20T01:49:15;100640.97;;;7.34;100.00
9695;BME280;4690;52.422;13.486;2023-12-20T01:51:41;100635.31;;;7.36;100.00
9695;BME280;4690;52.422;13.486;2023-12-20T01:54:06;100647.88;;;7.37;100.00
9695;BME280;4690;52.422;13.486;2023-12-20T01:56:33;100646.88;;;7.38;100.00
9695;BME280;4690;52.422;13.486;2023-12-20T01:59:00;100642.88;;;7.40;100.00
9695;BME280;4690;52.422;13.486;2023-12-20T02:01:27;100642.03;;;7.33;100.00
9695;BME280;4690;52.422;13.486;2023-12-20T02:03:55;100634.88;;;7.46;100.00
9695;BME280;4690;52.422;13.486;2023-12-20T02:06:23;100637.19;;;7.49;100.00
9695;BME280;4690;52.422;13.486;2023-12-20T02:08:50;100634.91;;;7.52;100.00
9695;BME280;4690;52.422;13.486;2023-12-20T02:11:16;100631.13;;;7.47;100.00
9695;BME280;4690;52.422;13.486;2023-12-20T02:13:42;100627.97;;;7.43;100.00
9695;BME280;4690;52.422;13.486;2023-12-20T02:16:08;100618.31;;;7.34;100.00
9695;BME280;4690;52.422;13.486;2023-12-20T02:18:34;100622.72;;;7.28;100.00
9695;BME280;4690;52.422;13.486;2023-12-20T02:20:59;100624.41;;;7.23;100.00
9695;BME280;4690;52.422;13.486;2023-12-20T02:23:25;100629.44;;;7.46;100.00
9695;BME280;4690;52.422;13.486;2023-12-20T02:25:51;100631.53;;;7.57;100.00
9695;BME280;4690;52.422;13.486;2023-12-20T02:28:17;100624.19;;;7.51;100.00
9695;BME280;4690;52.422;13.486;2023-12-20T02:30:42;100624.63;;;7.68;100.00
9695;BME280;4690;52.422;13.486;2023-12-20T02:33:12;100614.53;;;7.68;100.00
9695;BME280;4690;52.422;13.486;2023-12-20T02:35:38;100634.06;;;7.65;100.00
9695;BME280;4690;52.422;13.486;2023-12-20T02:38:03;100627.97;;;7.76;100.00
9695;BME280;4690;52.422;13.486;2023-12-20T02:40:29;100616.25;;;7.69;100.00
9695;BME280;4690;52.422;13.486;2023-12-20T02:42:55;100617.47;;;7.73;100.00
9695;BME280;4690;52.422;13.486;2023-12-20T02:45:20;100610.34;;;7.72;100.00
9695;BME280;4690;52.422;13.486;2023-12-20T02:47:46;100608.88;;;7.83;100.00
9695;BME280;4690;52.422;13.486;2023-12-20T02:50:12;100611.38;;;7.84;100.00
9695;BME280;4690;52.422;13.486;2023-12-20T02:52:38;100610.97;;;7.68;100.00
9695;BME280;4690;52.422;13.486;2023-12-20T02:55:04;100617.28;;;7.68;100.00
9695;BME280;4690;52.422;13.486;2023-12-20T02:57:29;100624.63;;;7.81;100.00
9695;BME280;4690;52.422;13.486;2023-12-20T02:59:55;100623.34;;;7.90;100.00
9695;BME280;4690;52.422;13.486;2023-12-20T03:02:21;100620.19;;;8.00;100.00
9695;BME280;4690;52.422;13.486;2023-12-20T03:04:47;100621.25;;;7.92;100.00
9695;BME280;4690;52.422;13.486;2023-12-20T03:07:12;100619.13;;;8.01;100.00
9695;BME280;4690;52.422;13.486;2023-12-20T03:09:38;100617.63;;;8.05;100.00
9695;BME280;4690;52.422;13.486;2023-12-20T03:12:04;100620.56;;;8.10;100.00
9695;BME280;4690;52.422;13.486;2023-12-20T03:14:30;100634.41;;;8.15;100.00
9695;BME280;4690;52.422;13.486;2023-12-20T03:16:55;100634.44;;;8.08;100.00
9695;BME280;4690;52.422;13.486;2023-12-20T03:19:21;100629.38;;;8.12;100.00
9695;BME280;4690;52.422;13.486;2023-12-20T03:21:47;100629.16;;;8.20;100.00
9695;BME280;4690;52.422;13.486;2023-12-20T03:24:13;100628.09;;;8.21;100.00
9695;BME280;4690;52.422;13.486;2023-12-20T03:26:38;100637.34;;;8.20;100.00
9695;BME280;4690;52.422;13.486;2023-12-20T03:29:04;100635.03;;;8.11;100.00
9695;BME280;4690;52.422;13.486;2023-12-20T03:31:30;100636.75;;;8.12;100.00
9695;BME280;4690;52.422;13.486;2023-12-20T03:33:56;100636.31;;;8.15;100.00
9695;BME280;4690;52.422;13.486;2023-12-20T03:36:21;100640.50;;;8.17;100.00
9695;BME280;4690;52.422;13.486;2023-12-20T03:38:47;100632.09;;;8.19;100.00
9695;BME280;4690;52.422;13.486;2023-12-20T03:41:13;100637.53;;;8.19;100.00
9695;BME280;4690;52.422;13.486;2023-12-20T03:43:39;100636.50;;;8.13;100.00
9695;BME280;4690;52.422;13.486;2023-12-20T03:46:05;100638.38;;;8.19;100.00
9695;BME280;4690;52.422;13.486;2023-12-20T03:48:31;100630.44;;;8.04;100.00
9695;BME280;4690;52.422;13.486;2023-12-20T03:50:57;100636.06;;;8.16;100.00
9695;BME280;4690;52.422;13.486;2023-12-20T03:53:23;100628.31;;;8.13;100.00
9695;BME280;4690;52.422;13.486;2023-12-20T03:55:48;100631.88;;;8.20;100.00
9695;BME280;4690;52.422;13.486;2023-12-20T03:58:14;100628.72;;;8.23;100.00
9695;BME280;4690;52.422;13.486;2023-12-20T04:00:40;100622.63;;;8.21;100.00
9695;BME280;4690;52.422;13.486;2023-12-20T04:03:07;100620.97;;;8.20;100.00
9695;BME280;4690;52.422;13.486;2023-12-20T04:05:32;100614.88;;;8.18;99.98
9695;BME280;4690;52.422;13.486;2023-12-20T04:08:01;100616.81;;;8.11;100.00
9695;BME280;4690;52.422;13.486;2023-12-20T04:10:27;100615.75;;;8.12;100.00
9695;BME280;4690;52.422;13.486;2023-12-20T04:12:53;100610.25;;;8.19;99.89
9695;BME280;4690;52.422;13.486;2023-12-20T04:15:20;100611.75;;;8.15;99.89
9695;BME280;4690;52.422;13.486;2023-12-20T04:17:46;100610.72;;;8.09;99.75
9695;BME280;4690;52.422;13.486;2023-12-20T04:20:11;100599.56;;;8.11;100.00
9695;BME280;4690;52.422;13.486;2023-12-20T04:22:37;100607.56;;;8.05;100.00
9695;BME280;4690;52.422;13.486;2023-12-20T04:25:03;100614.50;;;8.01;100.00
9695;BME280;4690;52.422;13.486;2023-12-20T04:27:29;100605.25;;;8.09;99.95
9695;BME280;4690;52.422;13.486;2023-12-20T04:29:55;100594.75;;;7.99;99.33
9695;BME280;4690;52.422;13.486;2023-12-20T04:32:20;100592.63;;;8.08;99.72
9695;BME280;4690;52.422;13.486;2023-12-20T04:34:46;100605.69;;;8.06;98.95
9695;BME280;4690;52.422;13.486;2023-12-20T04:37:12;100609.47;;;7.98;98.81
9695;BME280;4690;52.422;13.486;2023-12-20T04:39:38;100612.22;;;7.92;98.93
9695;BME280;4690;52.422;13.486;2023-12-20T04:42:04;100605.09;;;7.84;99.04
9695;BME280;4690;52.422;13.486;2023-12-20T04:44:30;100596.28;;;7.82;99.61
9695;BME280;4690;52.422;13.486;2023-12-20T04:46:55;100595.47;;;7.75;99.36
9695;BME280;4690;52.422;13.486;2023-12-20T04:49:22;100602.59;;;7.76;99.92
9695;BME280;4690;52.422;13.486;2023-12-20T04:51:47;100606.56;;;7.73;99.69
9695;BME280;4690;52.422;13.486;2023-12-20T04:54:13;100613.09;;;7.72;99.85
9695;BME280;4690;52.422;13.486;2023-12-20T04:56:39;100605.94;;;7.71;99.52
9695;BME280;4690;52.422;13.486;2023-12-20T04:59:05;100604.06;;;7.65;99.03
9695;BME280;4690;52.422;13.486;2023-12-20T05:01:31;100610.16;;;7.54;99.57
9695;BME280;4690;52.422;13.486;2023-12-20T05:03:56;100610.34;;;7.46;100.00
9695;BME280;4690;52.422;13.486;2023-12-20T05:06:22;100599.66;;;7.24;100.00
9695;BME280;4690;52.422;13.486;2023-12-20T05:08:48;100598.81;;;7.37;100.00
9695;BME280;4690;52.422;13.486;2023-12-20T05:11:14;100598.00;;;7.30;100.00
9695;BME280;4690;52.422;13.486;2023-12-20T05:13:40;100615.59;;;7.27;99.66
9695;BME280;4690;52.422;13.486;2023-12-20T05:16:06;100611.00;;;7.21;99.42
9695;BME280;4690;52.422;13.486;2023-12-20T05:18:32;100612.03;;;7.13;99.60
9695;BME280;4690;52.422;13.486;2023-12-20T05:20:58;100620.84;;;7.15;99.48
9695;BME280;4690;52.422;13.486;2023-12-20T05:23:24;100617.06;;;7.10;99.18
9695;BME280;4690;52.422;13.486;2023-12-20T05:25:50;100610.09;;;7.01;99.22
9695;BME280;4690;52.422;13.486;2023-12-20T05:28:15;100615.13;;;7.04;99.67
9695;BME280;4690;52.422;13.486;2023-12-20T05:30:41;100609.28;;;7.00;99.59
9695;BME280;4690;52.422;13.486;2023-12-20T05:33:07;100615.34;;;7.02;99.54
9695;BME280;4690;52.422;13.486;2023-12-20T05:35:32;100612.19;;;6.92;100.00
9695;BME280;4690;52.422;13.486;2023-12-20T05:37:58;100608.63;;;6.91;99.58
9695;BME280;4690;52.422;13.486;2023-12-20T05:40:24;100619.94;;;6.88;100.00
9695;BME280;4690;52.422;13.486;2023-12-20T05:42:50;100607.56;;;6.92;100.00
9695;BME280;4690;52.422;13.486;2023-12-20T05:45:15;100604.66;;;6.87;99.46
9695;BME280;4690;52.422;13.486;2023-12-20T05:47:41;100599.81;;;6.76;100.00
9695;BME280;4690;52.422;13.486;2023-12-20T05:50:07;100603.13;;;6.71;100.00
9695;BME280;4690;52.422;13.486;2023-12-20T05:52:33;100613.16;;;6.64;100.00
9695;BME280;4690;52.422;13.486;2023-12-20T05:54:59;100614.78;;;6.52;100.00
9695;BME280;4690;52.422;13.486;2023-12-20T05:57:27;100606.38;;;6.47;100.00
9695;BME280;4690;52.422;13.486;2023-12-20T05:59:53;100606.53;;;6.25;100.00
9695;BME280;4690;52.422;13.486;2023-12-20T06:02:18;100603.00;;;6.32;100.00
9695;BME280;4690;52.422;13.486;2023-12-20T06:04:44;100606.38;;;6.40;100.00
9695;BME280;4690;52.422;13.486;2023-12-20T06:07:14;100599.44;;;6.31;100.00
9695;BME280;4690;52.422;13.486;2023-12-20T06:09:40;100599.84;;;6.35;100.00
9695;BME280;4690;52.422;13.486;2023-12-20T06:12:07;100598.44;;;6.45;100.00
9695;BME280;4690;52.422;13.486;2023-12-20T06:14:34;100594.00;;;6.31;99.85
9695;BME280;4690;52.422;13.486;2023-12-20T06:17:00;100585.94;;;6.16;100.00
9695;BME280;4690;52.422;13.486;2023-12-20T06:19:27;100580.91;;;6.13;100.00
9695;BME280;4690;52.422;13.486;2023-12-20T06:21:53;100585.94;;;6.16;100.00
9695;BME280;4690;52.422;13.486;2023-12-20T06:24:19;100588.66;;;6.10;100.00
9695;BME280;4690;52.422;13.486;2023-12-20T06:26:45;100591.97;;;6.05;100.00
9695;BME280;4690;52.422;13.486;2023-12-20T06:29:12;100586.09;;;6.01;100.00
9695;BME280;4690;52.422;13.486;2023-12-20T06:31:37;100592.81;;;6.05;100.00
9695;BME280;4690;52.422;13.486;2023-12-20T06:34:03;100603.25;;;6.02;100.00
9695;BME280;4690;52.422;13.486;2023-12-20T06:36:29;100600.50;;;5.95;100.00
9695;BME280;4690;52.422;13.486;2023-12-20T06:38:54;100600.09;;;5.98;100.00
9695;BME280;4690;52.422;13.486;2023-12-20T06:41:20;100603.22;;;5.95;100.00
9695;BME280;4690;52.422;13.486;2023-12-20T06:43:46;100605.81;;;6.10;100.00
9695;BME280;4690;52.422;13.486;2023-12-20T06:46:12;100598.06;;;5.79;100.00
9695;BME280;4690;52.422;13.486;2023-12-20T06:48:39;100607.31;;;5.91;100.00
9695;BME280;4690;52.422;13.486;2023-12-20T06:51:05;100607.31;;;5.91;100.00
9695;BME280;4690;52.422;13.486;2023-12-20T06:53:31;100601.28;;;5.89;100.00
9695;BME280;4690;52.422;13.486;2023-12-20T06:55:57;100595.00;;;5.89;100.00
9695;BME280;4690;52.422;13.486;2023-12-20T06:58:23;100596.56;;;5.76;100.00
9695;BME280;4690;52.422;13.486;2023-12-20T07:00:50;100592.38;;;5.74;100.00
9695;BME280;4690;52.422;13.486;2023-12-20T07:03:17;100600.34;;;5.75;100.00
9695;BME280;4690;52.422;13.486;2023-12-20T07:05:43;100595.09;;;5.74;100.00
9695;BME280;4690;52.422;13.486;2023-12-20T07:08:09;100602.78;;;5.64;100.00
9695;BME280;4690;52.422;13.486;2023-12-20T07:10:35;100595.75;;;5.76;100.00
9695;BME280;4690;52.422;13.486;2023-12-20T07:13:02;100590.94;;;5.78;100.00
9695;BME280;4690;52.422;13.486;2023-12-20T07:15:27;100598.16;;;5.92;100.00
9695;BME280;4690;52.422;13.486;2023-12-20T07:17:55;100599.56;;;5.88;100.00
9695;BME280;4690;52.422;13.486;2023-12-20T07:20:20;100593.41;;;6.01;100.00
9695;BME280;4690;52.422;13.486;2023-12-20T07:22:46;100594.59;;;5.92;100.00
9695;BME280;4690;52.422;13.486;2023-12-20T07:25:12;100595.09;;;5.74;100.00
9695;BME280;4690;52.422;13.486;2023-12-20T07:27:38;100595.00;;;5.89;100.00
9695;BME280;4690;52.422;13.486;2023-12-20T07:30:04;100595.91;;;5.96;100.00
9695;BME280;4690;52.422;13.486;2023-12-20T07:32:30;100598.91;;;5.79;100.00
9695;BME280;4690;52.422;13.486;2023-12-20T07:34:57;100595.78;;;5.82;100.00
9695;BME280;4690;52.422;13.486;2023-12-20T07:37:23;100593.50;;;5.86;100.00
9695;BME280;4690;52.422;13.486;2023-12-20T07:39:49;100593.13;;;5.89;100.00
9695;BME280;4690;52.422;13.486;2023-12-20T07:42:14;100592.44;;;5.80;100.00
9695;BME280;4690;52.422;13.486;2023-12-20T07:44:40;100594.78;;;5.90;100.00
9695;BME280;4690;52.422;13.486;2023-12-20T07:47:06;100590.78;;;5.86;100.00
9695;BME280;4690;52.422;13.486;2023-12-20T07:49:32;100589.56;;;5.89;100.00
9695;BME280;4690;52.422;13.486;2023-12-20T07:51:57;100584.44;;;6.00;100.00
9695;BME280;4690;52.422;13.486;2023-12-20T07:54:23;100578.56;;;6.03;100.00
9695;BME280;4690;52.422;13.486;2023-12-20T07:56:49;100590.69;;;6.01;100.00
9695;BME280;4690;52.422;13.486;2023-12-20T07:59:15;100586.13;;;5.80;100.00
9695;BME280;4690;52.422;13.486;2023-12-20T08:01:41;100584.06;;;5.82;100.00
9695;BME280;4690;52.422;13.486;2023-12-20T08:04:08;100583.06;;;5.90;100.00
9695;BME280;4690;52.422;13.486;2023-12-20T08:06:34;100588.25;;;5.84;100.00
9695;BME280;4690;52.422;13.486;2023-12-20T08:09:00;100574.63;;;5.78;100.00
9695;BME280;4690;52.422;13.486;2023-12-20T08:11:25;100587.66;;;5.89;100.00
9695;BME280;4690;52.422;13.486;2023-12-20T08:13:51;100585.50;;;5.78;100.00
9695;BME280;4690;52.422;13.486;2023-12-20T08:16:17;100579.69;;;5.81;100.00
9695;BME280;4690;52.422;13.486;2023-12-20T08:18:43;100587.19;;;5.79;100.00
9695;BME280;4690;52.422;13.486;2023-12-20T08:21:09;100591.28;;;5.96;100.00
9695;BME280;4690;52.422;13.486;2023-12-20T08:23:35;100573.31;;;6.02;100.00
9695;BME280;4690;52.422;13.486;2023-12-20T08:26:07;100569.00;;;6.14;100.00
9695;BME280;4690;52.422;13.486;2023-12-20T08:28:34;100566.06;;;6.09;100.00
9695;BME280;4690;52.422;13.486;2023-12-20T08:31:00;100575.47;;;6.13;100.00
9695;BME280;4690;52.422;13.486;2023-12-20T08:33:26;100574.22;;;6.16;100.00
9695;BME280;4690;52.422;13.486;2023-12-20T08:35:52;100576.25;;;6.00;100.00
9695;BME280;4690;52.422;13.486;2023-12-20T08:38:17;100581.59;;;5.87;100.00
9695;BME280;4690;52.422;13.486;2023-12-20T08:40:44;100574.38;;;6.01;100.00
9695;BME280;4690;52.422;13.486;2023-12-20T08:43:10;100578.94;;;5.94;100.00
9695;BME280;4690;52.422;13.486;2023-12-20T08:45:36;100570.28;;;6.18;100.00
9695;BME280;4690;52.422;13.486;2023-12-20T08:48:02;100567.88;;;5.95;100.00
9695;BME280;4690;52.422;13.486;2023-12-20T08:50:29;100566.47;;;6.13;100.00
9695;BME280;4690;52.422;13.486;2023-12-20T08:52:54;100560.94;;;6.41;100.00
9695;BME280;4690;52.422;13.486;2023-12-20T08:55:20;100564.06;;;6.31;100.00
9695;BME280;4690;52.422;13.486;2023-12-20T08:57:46;100563.59;;;6.21;100.00
9695;BME280;4690;52.422;13.486;2023-12-20T09:00:13;100561.69;;;6.15;100.00
9695;BME280;4690;52.422;13.486;2023-12-20T09:02:39;100556.03;;;6.16;100.00
9695;BME280;4690;52.422;13.486;2023-12-20T09:05:05;100557.50;;;6.19;100.00
9695;BME280;4690;52.422;13.486;2023-12-20T09:07:31;100553.72;;;6.13;100.00
9695;BME280;4690;52.422;13.486;2023-12-20T09:09:58;100560.88;;;6.27;99.57
9695;BME280;4690;52.422;13.486;2023-12-20T09:12:25;100557.16;;;6.35;98.77
9695;BME280;4690;52.422;13.486;2023-12-20T09:14:51;100565.97;;;6.37;99.03
9695;BME280;4690;52.422;13.486;2023-12-20T09:17:18;100566.00;;;6.50;98.13
9695;BME280;4690;52.422;13.486;2023-12-20T09:19:45;100563.28;;;6.50;97.57
9695;BME280;4690;52.422;13.486;2023-12-20T09:22:11;100567.44;;;6.46;97.93
9695;BME280;4690;52.422;13.486;2023-12-20T09:24:37;100576.50;;;6.60;97.41
9695;BME280;4690;52.422;13.486;2023-12-20T09:27:05;100549.69;;;6.57;96.31
9695;BME280;4690;52.422;13.486;2023-12-20T09:29:31;100553.66;;;6.55;95.16
9695;BME280;4690;52.422;13.486;2023-12-20T09:31:57;100541.56;;;6.77;95.30
9695;BME280;4690;52.422;13.486;2023-12-20T09:34:23;100541.78;;;6.82;93.93
9695;BME280;4690;52.422;13.486;2023-12-20T09:36:50;100541.72;;;6.56;94.69
9695;BME280;4690;52.422;13.486;2023-12-20T09:39:20;100546.31;;;6.55;94.85
9695;BME280;4690;52.422;13.486;2023-12-20T09:42:03;100541.53;;;6.57;95.16
9695;BME280;4690;52.422;13.486;2023-12-20T09:44:31;100548.25;;;6.68;94.59
9695;BME280;4690;52.422;13.486;2023-12-20T09:46:57;100546.13;;;6.70;94.05
9695;BME280;4690;52.422;13.486;2023-12-20T09:49:25;100548.88;;;6.63;93.98
9695;BME280;4690;52.422;13.486;2023-12-20T09:51:54;100543.63;;;6.62;93.61
9695;BME280;4690;52.422;13.486;2023-12-20T09:54:22;100541.09;;;6.67;94.08
9695;BME280;4690;52.422;13.486;2023-12-20T09:56:48;100540.72;;;6.77;93.22
9695;BME280;4690;52.422;13.486;2023-12-20T09:59:14;100535.91;;;6.79;93.30
9695;BME280;4690;52.422;13.486;2023-12-20T10:01:42;100536.91;;;6.58;94.63
9695;BME280;4690;52.422;13.486;2023-12-20T10:04:12;100522.66;;;6.56;93.75
9695;BME280;4690;52.422;13.486;2023-12-20T10:06:42;100528.59;;;6.79;92.73
9695;BME280;4690;52.422;13.486;2023-12-20T10:09:09;100513.91;;;6.80;92.83
9695;BME280;4690;52.422;13.486;2023-12-20T10:11:37;100505.53;;;6.82;92.38
9695;BME280;4690;52.422;13.486;2023-12-20T10:14:04;100495.06;;;6.85;91.89
9695;BME280;4690;52.422;13.486;2023-12-20T10:16:31;100495.47;;;6.76;91.64
9695;BME280;4690;52.422;13.486;2023-12-20T10:18:59;100491.31;;;6.93;92.23
9695;BME280;4690;52.422;13.486;2023-12-20T10:21:26;100493.59;;;6.89;91.18
9695;BME280;4690;52.422;13.486;2023-12-20T10:23:57;100488.34;;;6.94;91.17
9695;BME280;4690;52.422;13.486;2023-12-20T10:26:27;100485.41;;;6.89;90.96
9695;BME280;4690;52.422;13.486;2023-12-20T10:28:56;100476.00;;;6.99;91.28
9695;BME280;4690;52.422;13.486;2023-12-20T10:31:33;100477.88;;;6.78;91.53
9695;BME280;4690;52.422;13.486;2023-12-20T10:34:01;100476.81;;;6.72;91.23
9695;BME280;4690;52.422;13.486;2023-12-20T10:36:32;100473.25;;;6.92;90.63
9695;BME280;4690;52.422;13.486;2023-12-20T10:38:59;100468.00;;;7.04;90.31
9695;BME280;4690;52.422;13.486;2023-12-20T10:41:31;100461.13;;;6.88;89.35
9695;BME280;4690;52.422;13.486;2023-12-20T10:44:03;100461.31;;;7.00;89.58
9695;BME280;4690;52.422;13.486;2023-12-20T10:46:31;100445.41;;;7.10;89.19
9695;BME280;4690;52.422;13.486;2023-12-20T10:49:02;100439.72;;;7.25;88.75
9695;BME280;4690;52.422;13.486;2023-12-20T10:51:28;100436.34;;;7.29;87.67
9695;BME280;4690;52.422;13.486;2023-12-20T10:53:56;100446.81;;;7.39;87.64
9695;BME280;4690;52.422;13.486;2023-12-20T10:56:22;100429.63;;;7.38;86.97
9695;BME280;4690;52.422;13.486;2023-12-20T10:58:52;100430.88;;;7.36;86.78
9695;BME280;4690;52.422;13.486;2023-12-20T11:01:19;100429.19;;;7.41;86.48
9695;BME280;4690;52.422;13.486;2023-12-20T11:03:54;100424.38;;;7.44;86.11
9695;BME280;4690;52.422;13.486;2023-12-20T11:06:36;100416.59;;;7.47;85.93
9695;BME280;4690;52.422;13.486;2023-12-20T11:09:26;100406.81;;;7.13;86.37
9695;BME280;4690;52.422;13.486;2023-12-20T11:12:53;100399.88;;;7.17;86.00
9695;BME280;4690;52.422;13.486;2023-12-20T11:15:19;100403.66;;;7.29;86.54
9695;BME280;4690;52.422;13.486;2023-12-20T11:17:46;100399.63;;;7.32;85.95
9695;BME280;4690;52.422;13.486;2023-12-20T11:20:12;100403.84;;;7.28;86.62
9695;BME280;4690;52.422;13.486;2023-12-20T11:22:52;100391.06;;;7.35;87.64
9695;BME280;4690;52.422;13.486;2023-12-20T11:25:18;100392.53;;;7.24;86.50
9695;BME280;4690;52.422;13.486;2023-12-20T11:27:44;100381.84;;;7.23;87.68
9695;BME280;4690;52.422;13.486;2023-12-20T11:30:11;100378.94;;;7.11;87.59
9695;BME280;4690;52.422;13.486;2023-12-20T11:32:37;100379.38;;;7.08;87.86
9695;BME280;4690;52.422;13.486;2023-12-20T11:37:40;100367.25;;;6.97;88.07
9695;BME280;4690;52.422;13.486;2023-12-20T11:40:15;100370.56;;;7.12;88.71
9695;BME280;4690;52.422;13.486;2023-12-20T11:42:45;100364.50;;;6.97;89.46
9695;BME280;4690;52.422;13.486;2023-12-20T11:45:16;100342.13;;;6.88;89.84
9695;BME280;4690;52.422;13.486;2023-12-20T11:47:48;100345.69;;;6.95;89.48
9695;BME280;4690;52.422;13.486;2023-12-20T11:50:16;100343.34;;;6.92;90.17
9695;BME280;4690;52.422;13.486;2023-12-20T11:52:42;100346.91;;;7.00;89.58
9695;BME280;4690;52.422;13.486;2023-12-20T11:55:07;100342.75;;;6.90;89.86
9695;BME280;4690;52.422;13.486;2023-12-20T11:57:33;100340.25;;;6.82;91.08
9695;BME280;4690;52.422;13.486;2023-12-20T11:59:59;100334.78;;;6.89;91.78
9695;BME280;4690;52.422;13.486;2023-12-20T12:02:25;100330.59;;;6.93;91.25
9695;BME280;4690;52.422;13.486;2023-12-20T12:04:51;100316.75;;;6.81;91.82
9695;BME280;4690;52.422;13.486;2023-12-20T12:07:17;100315.94;;;6.81;92.72
9695;BME280;4690;52.422;13.486;2023-12-20T12:09:44;100304.47;;;6.65;92.46
9695;BME280;4690;52.422;13.486;2023-12-20T12:12:11;100299.22;;;6.70;93.03
9695;BME280;4690;52.422;13.486;2023-12-20T12:14:38;100304.00;;;6.75;93.44
9695;BME280;4690;52.422;13.486;2023-12-20T12:17:13;100288.56;;;6.62;93.20
9695;BME280;4690;52.422;13.486;2023-12-20T12:19:43;100286.66;;;6.63;93.34
9695;BME280;4690;52.422;13.486;2023-12-20T12:22:12;100284.72;;;6.83;92.52
9695;BME280;4690;52.422;13.486;2023-12-20T12:24:40;100268.00;;;6.73;91.74
9695;BME280;4690;52.422;13.486;2023-12-20T12:27:07;100257.72;;;6.75;91.98
9695;BME280;4690;52.422;13.486;2023-12-20T12:29:34;100255.00;;;6.75;91.02
9695;BME280;4690;52.422;13.486;2023-12-20T12:32:00;100253.72;;;6.78;90.86
9695;BME280;4690;52.422;13.486;2023-12-20T12:34:29;100255.00;;;6.82;90.60
9695;BME280;4690;52.422;13.486;2023-12-20T12:36:56;100244.75;;;6.70;91.96
9695;BME280;4690;52.422;13.486;2023-12-20T12:39:24;100244.16;;;6.62;92.65
9695;BME280;4690;52.422;13.486;2023-12-20T12:41:53;100250.63;;;6.61;93.15
9695;BME280;4690;52.422;13.486;2023-12-20T12:44:19;100229.91;;;6.53;94.67
9695;BME280;4690;52.422;13.486;2023-12-20T12:46:48;100212.16;;;6.44;94.72
9695;BME280;4690;52.422;13.486;2023-12-20T12:49:17;100218.66;;;6.36;97.24
9695;BME280;4690;52.422;13.486;2023-12-20T12:51:43;100218.03;;;6.34;97.74
9695;BME280;4690;52.422;13.486;2023-12-20T12:54:10;100214.25;;;6.35;99.42
9695;BME280;4690;52.422;13.486;2023-12-20T12:56:36;100212.97;;;6.44;100.00
9695;BME280;4690;52.422;13.486;2023-12-20T12:59:02;100215.53;;;6.39;100.00
9695;BME280;4690;52.422;13.486;2023-12-20T13:01:28;100205.47;;;6.33;100.00
9695;BME280;4690;52.422;13.486;2023-12-20T13:03:54;100202.09;;;6.44;100.00
9695;BME280;4690;52.422;13.486;2023-12-20T13:06:20;100197.06;;;6.41;100.00
9695;BME280;4690;52.422;13.486;2023-12-20T13:08:46;100186.41;;;6.46;100.00
9695;BME280;4690;52.422;13.486;2023-12-20T13:11:11;100196.66;;;6.51;100.00
9695;BME280;4690;52.422;13.486;2023-12-20T13:13:37;100197.69;;;6.50;100.00